Time;durP1;ratioP1;P1;durP2;ratioP2;P2;SDS_P1;SDS_P2;PMS_P1;PMS_P2;Temp;Humidity;BMP_temperature;BMP_pressure;BME280_temperature;BME280_humidity;BME280_pressure;Samples;Min_cycle;Max_cycle;Signal;HPM_P1;HPM_P2
2021/09/22 00:00:07;;;;;;;14.27;11.48;;;;;;;16.49;63.16;99641.84;5053084;28;20021;-51
2021/09/22 00:02:32;;;;;;;16.55;15.02;;;;;;;16.27;63.88;99637.94;5053106;28;20096;-51
2021/09/22 00:04:58;;;;;;;11.80;8.05;;;;;;;16.12;64.39;99636.41;5052951;28;20143;-52
2021/09/22 00:07:24;;;;;;;12.18;8.13;;;;;;;16.11;64.53;99636.59;5051664;28;20064;-51
2021/09/22 00:09:50;;;;;;;12.52;7.25;;;;;;;16.10;65.08;99633.16;5052596;28;20036;-51
2021/09/22 00:12:16;;;;;;;9.35;7.10;;;;;;;16.23;65.38;99631.44;5052188;28;20029;-50
2021/09/22 00:14:42;;;;;;;13.48;11.32;;;;;;;16.43;65.07;99626.81;5053055;28;20029;-51
2021/09/22 00:17:07;;;;;;;12.32;7.30;;;;;;;16.80;64.41;99626.91;5052973;28;20037;-52
2021/09/22 00:19:33;;;;;;;13.93;9.55;;;;;;;17.10;63.69;99616.50;5052803;28;20399;-51
2021/09/22 00:21:59;;;;;;;15.50;9.18;;;;;;;17.17;62.75;99611.09;5051314;28;20029;-51
2021/09/22 00:24:25;;;;;;;8.27;7.32;;;;;;;17.09;62.50;99614.03;5052596;28;20505;-51
2021/09/22 00:26:50;;;;;;;7.40;6.68;;;;;;;16.92;62.63;99604.00;5051334;28;20036;-51
2021/09/22 00:29:16;;;;;;;10.40;8.93;;;;;;;16.84;63.33;99601.66;5051339;28;20498;-52
2021/09/22 00:31:42;;;;;;;8.02;7.22;;;;;;;16.94;63.13;99606.44;5051259;28;20025;-51
2021/09/22 00:34:08;;;;;;;10.90;8.85;;;;;;;17.05;62.95;99612.88;5053001;28;20025;-52
2021/09/22 00:36:37;;;;;;;18.58;12.43;;;;;;;17.17;62.68;99603.94;5051115;28;20108;-51
2021/09/22 00:39:03;;;;;;;10.82;9.18;;;;;;;17.21;62.20;99606.97;5051133;28;20024;-51
2021/09/22 00:41:29;;;;;;;17.17;7.75;;;;;;;17.35;62.24;99607.66;5052597;28;20508;-51
2021/09/22 00:43:55;;;;;;;9.23;6.65;;;;;;;17.51;61.18;99606.22;5050922;28;20056;-51
2021/09/22 00:46:21;;;;;;;7.88;6.22;;;;;;;17.31;60.93;99607.28;5050776;28;20119;-51
2021/09/22 00:48:46;;;;;;;10.07;7.45;;;;;;;16.91;61.55;99605.03;5050875;28;20128;-51
2021/09/22 00:51:12;;;;;;;9.50;6.68;;;;;;;16.54;62.56;99610.22;5052139;28;20029;-51
2021/09/22 00:53:39;;;;;;;9.70;7.68;;;;;;;16.50;63.31;99598.44;5050927;28;20025;-51
2021/09/22 00:56:06;;;;;;;11.60;7.30;;;;;;;16.69;63.40;99601.13;5052036;28;20025;-51
2021/09/22 00:58:32;;;;;;;9.63;7.95;;;;;;;16.72;62.96;99600.69;5052019;28;20047;-51
2021/09/22 01:00:58;;;;;;;9.60;6.15;;;;;;;16.78;62.96;99605.94;5051982;28;20021;-51
2021/09/22 01:03:24;;;;;;;14.27;8.32;;;;;;;16.96;62.92;99596.41;5034131;28;20040;-50
2021/09/22 01:05:52;;;;;;;13.55;8.38;;;;;;;17.43;61.79;99594.06;5050541;28;20021;-52
2021/09/22 01:08:20;;;;;;;11.63;7.85;;;;;;;17.63;60.70;99593.81;5050624;28;20120;-52
2021/09/22 01:10:46;;;;;;;10.20;6.22;;;;;;;17.43;60.22;99594.06;5050526;28;20115;-51
2021/09/22 01:13:13;;;;;;;10.50;7.90;;;;;;;17.06;60.84;99587.94;5051837;28;20071;-51
2021/09/22 01:15:43;;;;;;;40.53;23.77;;;;;;;16.82;61.96;99587.81;5050501;28;20017;-52
2021/09/22 01:18:18;;;;;;;12.32;7.63;;;;;;;16.91;62.09;99597.06;5051697;28;20498;-51
2021/09/22 01:20:49;;;;;;;12.68;7.60;;;;;;;16.84;61.84;99599.00;5051716;28;20032;-52
2021/09/22 01:23:15;;;;;;;12.07;7.72;;;;;;;16.72;62.40;99592.72;5051221;28;20091;-51
2021/09/22 01:25:46;;;;;;;29.25;10.82;;;;;;;16.98;62.48;99597.00;5051530;28;20013;-51
2021/09/22 01:28:15;;;;;;;16.23;11.27;;;;;;;17.42;61.41;99595.09;5051795;28;20116;-51
2021/09/22 01:30:41;;;;;;;11.50;8.90;;;;;;;17.72;60.61;99595.13;5050326;28;20022;-51
2021/09/22 01:33:10;;;;;;;12.80;6.45;;;;;;;17.73;59.79;99588.78;5051554;28;20029;-51
2021/09/22 01:35:39;;;;;;;6.82;5.93;;;;;;;17.53;59.75;99591.69;5050246;28;20032;-51
2021/09/22 01:38:11;;;;;;;11.32;7.38;;;;;;;17.37;60.24;99593.13;5051807;28;20080;-51
2021/09/22 01:40:38;;;;;;;15.73;8.57;;;;;;;17.35;60.61;99595.19;5051635;28;20037;-52
2021/09/22 01:43:05;;;;;;;13.02;9.10;;;;;;;17.46;60.34;99587.50;5051537;28;20033;-51
2021/09/22 01:45:31;;;;;;;15.32;8.25;;;;;;;17.42;60.28;99591.63;5050269;28;20066;-51
2021/09/22 01:47:58;;;;;;;18.42;8.27;;;;;;;17.49;59.86;99582.56;5050073;28;20021;-51
2021/09/22 01:50:25;;;;;;;13.48;8.63;;;;;;;17.56;59.62;99591.22;5051434;28;20024;-51
2021/09/22 01:52:52;;;;;;;18.42;12.35;;;;;;;17.51;59.76;99587.66;5051440;28;20039;-51
2021/09/22 01:55:21;;;;;;;13.80;8.60;;;;;;;17.53;59.80;99588.25;5051385;28;20048;-52
2021/09/22 01:57:49;;;;;;;10.00;7.18;;;;;;;17.51;59.40;99582.34;5050087;28;20415;-51
2021/09/22 02:00:15;;;;;;;12.80;10.00;;;;;;;17.45;59.53;99575.28;5050063;28;20021;-51
2021/09/22 02:02:42;;;;;;;15.30;8.70;;;;;;;17.40;59.67;99575.94;5051364;28;20108;-52
2021/09/22 02:05:08;;;;;;;11.48;7.68;;;;;;;17.36;59.44;99572.09;5051225;28;20025;-51
2021/09/22 02:07:37;;;;;;;14.13;6.70;;;;;;;17.22;59.94;99570.63;5050032;28;20033;-52
2021/09/22 02:10:05;;;;;;;12.00;7.70;;;;;;;17.30;59.98;99584.41;5051251;28;20083;-51
2021/09/22 02:12:31;;;;;;;15.98;9.65;;;;;;;17.37;59.70;99582.50;5033732;28;20036;-51
2021/09/22 02:14:57;;;;;;;17.08;8.20;;;;;;;17.25;59.73;99589.59;5051199;28;20021;-51
2021/09/22 02:17:23;;;;;;;15.02;10.05;;;;;;;17.23;59.73;99583.69;5051137;28;20061;-51
2021/09/22 02:19:49;;;;;;;14.73;10.23;;;;;;;17.25;59.94;99578.97;5051207;28;20028;-52
2021/09/22 02:22:15;;;;;;;12.15;7.72;;;;;;;17.30;59.26;99575.66;5050604;28;20080;-52
2021/09/22 02:24:44;;;;;;;15.00;7.82;;;;;;;17.17;59.51;99573.97;5049717;28;20033;-52
2021/09/22 02:27:12;;;;;;;10.57;8.40;;;;;;;17.02;59.95;99566.34;5051108;28;20022;-52
2021/09/22 02:29:41;;;;;;;9.23;6.90;;;;;;;17.09;60.11;99561.00;5051109;28;20021;-51
2021/09/22 02:32:08;;;;;;;9.73;7.75;;;;;;;17.10;59.47;99570.56;5049774;28;20426;-51
2021/09/22 02:34:35;;;;;;;15.10;9.07;;;;;;;16.94;60.03;99566.66;5051396;28;20394;-51
2021/09/22 02:37:01;;;;;;;12.15;10.10;;;;;;;16.89;60.14;99567.31;5053388;28;20135;-51
2021/09/22 02:39:26;;;;;;;12.85;7.38;;;;;;;16.91;60.32;99577.72;5054614;28;20546;-51
2021/09/22 02:41:52;;;;;;;13.82;7.72;;;;;;;16.91;60.08;99570.56;5053395;28;20029;-51
2021/09/22 02:44:18;;;;;;;14.32;11.75;;;;;;;16.89;60.22;99571.81;5053187;28;20021;-51
2021/09/22 02:46:44;;;;;;;16.60;10.38;;;;;;;16.87;60.39;99573.88;5053151;28;20494;-51
2021/09/22 02:49:10;;;;;;;14.80;6.78;;;;;;;16.83;60.15;99573.50;5054486;28;20450;-51
2021/09/22 02:51:35;;;;;;;11.45;8.00;;;;;;;16.71;60.24;99575.22;5054380;28;20044;-51
2021/09/22 02:54:02;;;;;;;15.98;7.70;;;;;;;16.59;60.74;99564.53;5053040;28;20395;-51
2021/09/22 02:56:28;;;;;;;22.13;7.70;;;;;;;16.58;60.93;99560.25;5053033;28;20387;-51
2021/09/22 02:58:54;;;;;;;8.57;6.38;;;;;;;16.67;60.16;99558.13;5054272;28;20033;-51
2021/09/22 03:01:19;;;;;;;19.08;13.38;;;;;;;16.12;60.74;99546.38;5054211;28;20548;-52
2021/09/22 03:03:45;;;;;;;9.73;7.28;;;;;;;16.00;61.81;99549.91;5054138;28;20514;-51
2021/09/22 03:06:11;;;;;;;14.32;7.55;;;;;;;16.06;61.96;99541.94;5054017;28;20112;-51
2021/09/22 03:08:38;;;;;;;9.27;7.15;;;;;;;16.32;61.26;99540.09;5054039;28;20028;-51
2021/09/22 03:11:08;;;;;;;11.32;8.00;;;;;;;16.42;60.99;99536.94;5054233;28;20033;-51
2021/09/22 03:13:38;;;;;;;14.27;7.25;;;;;;;16.49;60.27;99535.88;5053931;28;20028;-51
2021/09/22 03:16:04;;;;;;;16.40;8.73;;;;;;;16.46;60.61;99533.66;5053853;28;20081;-51
2021/09/22 03:18:30;;;;;;;12.73;7.32;;;;;;;16.50;60.29;99536.66;5052681;28;20048;-51
2021/09/22 03:20:57;;;;;;;18.98;8.30;;;;;;;16.51;60.38;99540.94;5053652;28;20021;-52
2021/09/22 03:23:23;;;;;;;16.20;11.80;;;;;;;16.55;60.03;99540.28;5052588;28;20017;-52
2021/09/22 03:25:53;;;;;;;16.13;10.38;;;;;;;16.43;59.78;99533.28;5052405;28;20525;-52
2021/09/22 03:28:19;;;;;;;9.40;6.70;;;;;;;16.15;60.58;99537.97;5052439;28;20025;-51
2021/09/22 03:30:44;;;;;;;14.30;6.57;;;;;;;16.11;60.90;99539.44;5052384;28;20025;-51
2021/09/22 03:33:10;;;;;;;14.40;8.27;;;;;;;16.21;60.91;99538.16;5053646;28;20024;-51
2021/09/22 03:35:36;;;;;;;12.82;7.40;;;;;;;16.41;60.98;99538.78;5053514;28;20043;-51
2021/09/22 03:38:03;;;;;;;12.48;6.68;;;;;;;16.48;60.12;99536.91;5053576;28;20025;-52
2021/09/22 03:40:28;;;;;;;12.95;8.98;;;;;;;16.33;59.89;99525.81;5052149;28;20470;-52
2021/09/22 03:42:55;;;;;;;14.27;9.75;;;;;;;16.21;60.50;99531.00;5053489;28;20049;-51
2021/09/22 03:45:21;;;;;;;14.30;7.25;;;;;;;16.04;60.30;99535.25;5053105;28;20108;-51
2021/09/22 03:47:47;;;;;;;9.68;6.50;;;;;;;15.65;60.96;99535.22;5052001;28;20143;-51
2021/09/22 03:50:13;;;;;;;11.02;8.05;;;;;;;15.07;61.78;99541.41;5053323;28;20078;-51
2021/09/22 03:52:38;;;;;;;15.40;10.95;;;;;;;14.41;63.45;99541.47;5053300;28;20027;-52
2021/09/22 03:55:07;;;;;;;32.35;27.15;;;;;;;13.85;65.12;99538.19;5051910;28;20021;-52
2021/09/22 03:57:32;;;;;;;32.13;27.75;;;;;;;13.39;66.62;99538.88;5053114;28;20029;-52
2021/09/22 03:59:58;;;;;;;25.80;22.92;;;;;;;13.00;67.83;99548.22;5051852;28;20035;-51
2021/09/22 04:02:24;;;;;;;21.73;19.52;;;;;;;12.63;69.31;99547.56;5053076;28;20021;-52
2021/09/22 04:04:50;;;;;;;17.55;15.23;;;;;;;12.46;70.11;99552.31;5052919;28;20117;-53
2021/09/22 04:07:16;;;;;;;20.42;18.30;;;;;;;12.44;70.46;99554.34;5053042;28;20047;-53
2021/09/22 04:09:42;;;;;;;17.25;10.80;;;;;;;12.82;70.42;99559.25;5052952;28;20029;-54
2021/09/22 04:12:08;;;;;;;19.45;15.38;;;;;;;12.89;69.29;99554.03;5052879;28;20029;-54
2021/09/22 04:14:33;;;;;;;13.35;9.38;;;;;;;13.02;69.29;99555.91;5052833;28;20025;-53
2021/09/22 04:16:59;;;;;;;27.02;23.63;;;;;;;13.05;69.26;99553.69;5052728;28;20454;-53
2021/09/22 04:19:25;;;;;;;14.10;11.63;;;;;;;13.27;69.45;99543.06;5052767;28;20021;-54
2021/09/22 04:21:51;;;;;;;12.50;8.35;;;;;;;13.69;68.59;99539.38;5052431;28;20049;-54
2021/09/22 04:24:17;;;;;;;13.05;10.48;;;;;;;13.76;67.90;99534.09;5051279;28;20032;-53
2021/09/22 04:26:43;;;;;;;22.10;11.77;;;;;;;14.02;67.77;99538.63;5051254;28;20024;-54
2021/09/22 04:29:08;;;;;;;16.80;9.77;;;;;;;14.49;66.62;99542.09;5051403;28;20017;-54
2021/09/22 04:31:35;;;;;;;15.43;10.50;;;;;;;14.56;65.65;99548.19;5051161;28;20488;-54
2021/09/22 04:34:00;;;;;;;17.13;8.60;;;;;;;14.69;65.95;99547.38;5052407;28;20506;-53
2021/09/22 04:36:27;;;;;;;18.10;9.80;;;;;;;15.09;64.59;99547.28;5051155;28;20035;-53
2021/09/22 04:38:53;;;;;;;9.77;7.78;;;;;;;15.45;63.58;99545.09;5052321;28;20518;-54
2021/09/22 04:41:19;;;;;;;11.98;7.45;;;;;;;15.82;62.67;99548.00;5051133;28;20017;-54
2021/09/22 04:43:44;;;;;;;19.35;9.15;;;;;;;16.12;61.42;99542.91;5052326;28;20477;-54
2021/09/22 04:46:10;;;;;;;20.13;8.15;;;;;;;16.33;60.42;99545.16;5050801;28;20041;-51
2021/09/22 04:48:39;;;;;;;20.50;13.75;;;;;;;16.52;59.80;99540.75;5052244;28;20025;-51
2021/09/22 04:51:05;;;;;;;15.90;9.00;;;;;;;16.73;59.44;99550.09;5052374;28;20052;-51
2021/09/22 04:53:30;;;;;;;23.85;14.85;;;;;;;16.95;58.68;99542.56;5052132;28;20059;-51
2021/09/22 04:55:56;;;;;;;13.65;9.15;;;;;;;17.07;58.06;99553.25;5052112;28;20032;-51
2021/09/22 04:58:23;;;;;;;13.30;10.70;;;;;;;17.06;57.96;99558.78;5050306;28;20064;-52
2021/09/22 05:00:48;;;;;;;17.95;11.50;;;;;;;17.11;57.76;99554.44;5034140;28;20562;-51
2021/09/22 05:03:15;;;;;;;16.92;9.48;;;;;;;17.21;57.49;99556.56;5052005;28;20104;-52
2021/09/22 05:05:42;;;;;;;10.93;9.40;;;;;;;17.12;57.07;99544.63;5052080;28;20100;-52
2021/09/22 05:08:08;;;;;;;13.60;8.95;;;;;;;16.96;57.81;99557.47;5050663;28;20521;-52
2021/09/22 05:10:33;;;;;;;22.08;11.23;;;;;;;16.99;57.75;99556.22;5034012;28;20056;-51
2021/09/22 05:12:59;;;;;;;30.20;16.27;;;;;;;17.03;57.47;99557.38;5051928;28;20044;-52
2021/09/22 05:15:25;;;;;;;18.25;10.57;;;;;;;16.85;57.66;99560.03;5050587;28;20040;-51
2021/09/22 05:17:50;;;;;;;20.77;11.07;;;;;;;16.80;57.98;99565.13;5050520;28;20490;-51
2021/09/22 05:20:16;;;;;;;14.50;10.23;;;;;;;16.95;57.73;99561.13;5051882;28;20029;-52
2021/09/22 05:22:42;;;;;;;11.27;8.48;;;;;;;16.98;57.75;99559.88;5050226;28;20071;-51
2021/09/22 05:25:08;;;;;;;21.08;8.85;;;;;;;17.00;57.59;99557.00;5051664;28;20024;-51
2021/09/22 05:27:34;;;;;;;17.27;12.77;;;;;;;16.89;57.76;99558.56;5051887;28;20059;-50
2021/09/22 05:29:59;;;;;;;16.23;8.80;;;;;;;16.93;58.10;99562.41;5051956;28;20387;-50
2021/09/22 05:32:25;;;;;;;19.23;8.32;;;;;;;17.01;57.81;99554.16;5050316;28;20115;-51
2021/09/22 05:34:51;;;;;;;21.95;11.75;;;;;;;17.10;57.63;99562.59;5050324;28;20125;-51
2021/09/22 05:37:18;;;;;;;26.52;11.43;;;;;;;17.16;57.49;99561.72;5051683;28;20112;-52
2021/09/22 05:39:44;;;;;;;22.10;17.15;;;;;;;16.87;58.13;99569.38;5051573;28;20376;-52
2021/09/22 05:42:10;;;;;;;18.95;10.52;;;;;;;16.94;58.18;99558.69;5050245;28;20033;-51
2021/09/22 05:44:36;;;;;;;13.55;8.85;;;;;;;17.05;57.87;99562.47;5051478;28;20018;-52
2021/09/22 05:47:02;;;;;;;15.23;10.88;;;;;;;17.13;57.64;99557.69;5050160;28;20163;-51
2021/09/22 05:49:28;;;;;;;19.75;11.18;;;;;;;17.22;57.67;99566.13;5051466;28;20036;-51
2021/09/22 05:51:54;;;;;;;26.45;11.93;;;;;;;17.29;57.49;99566.09;5051498;28;20066;-51
2021/09/22 05:54:21;;;;;;;28.58;10.52;;;;;;;17.39;57.44;99569.03;5050114;28;20108;-51
2021/09/22 05:56:48;;;;;;;32.20;16.65;;;;;;;17.40;57.01;99567.97;5051423;28;20032;-50
2021/09/22 05:59:14;;;;;;;35.15;12.52;;;;;;;17.35;57.30;99579.25;5050082;28;20425;-50
2021/09/22 06:01:40;;;;;;;22.90;12.13;;;;;;;17.27;57.22;99576.91;5050060;28;20025;-50
2021/09/22 06:04:07;;;;;;;32.13;13.90;;;;;;;17.20;57.79;99578.81;5050062;28;20017;-49
2021/09/22 06:06:33;;;;;;;26.80;17.27;;;;;;;16.99;58.18;99577.41;5049901;28;20398;-50
2021/09/22 06:09:01;;;;;;;32.60;17.58;;;;;;;16.67;58.96;99585.44;5050782;28;20037;-50
2021/09/22 06:11:27;;;;;;;47.10;18.08;;;;;;;16.50;59.91;99584.38;5053828;28;20083;-50
2021/09/22 06:13:53;;;;;;;30.70;17.25;;;;;;;16.37;59.92;99580.78;5053772;28;20029;-50
2021/09/22 06:16:21;;;;;;;31.55;19.45;;;;;;;16.18;60.48;99587.06;5055045;28;20035;-50
2021/09/22 06:18:47;;;;;;;36.15;19.17;;;;;;;16.22;61.49;99585.63;5055050;28;20021;-50
2021/09/22 06:21:13;;;;;;;34.55;19.95;;;;;;;16.51;60.77;99592.09;5054681;28;20037;-52
2021/09/22 06:23:39;;;;;;;41.13;23.25;;;;;;;16.69;60.77;99591.34;5054995;28;20563;-52
2021/09/22 06:26:08;;;;;;;31.45;18.67;;;;;;;16.91;60.15;99581.16;5054878;28;20045;-51
2021/09/22 06:28:34;;;;;;;41.13;19.23;;;;;;;16.91;59.41;99585.66;5053556;28;20053;-52
2021/09/22 06:31:03;;;;;;;29.45;18.27;;;;;;;16.74;59.93;99585.38;5055115;28;20028;-50
2021/09/22 06:33:29;;;;;;;31.98;19.13;;;;;;;16.69;60.25;99587.88;5053719;28;20033;-50
2021/09/22 06:35:59;;;;;;;35.50;20.55;;;;;;;16.63;60.50;99584.25;5053385;28;20028;-50
2021/09/22 06:38:29;;;;;;;31.65;20.20;;;;;;;16.60;60.78;99582.06;5054771;28;20060;-50
2021/09/22 06:40:56;;;;;;;27.80;19.80;;;;;;;16.48;61.00;99581.94;5053283;28;20055;-49
2021/09/22 06:43:22;;;;;;;28.33;20.55;;;;;;;16.43;61.23;99587.06;5053272;28;20036;-50
2021/09/22 06:45:48;;;;;;;27.63;20.60;;;;;;;16.50;61.37;99584.38;5054455;28;20017;-50
2021/09/22 06:48:14;;;;;;;29.27;20.88;;;;;;;16.44;61.09;99586.06;5054479;28;20398;-50
2021/09/22 06:50:39;;;;;;;41.70;21.33;;;;;;;16.23;61.49;99595.16;5053024;28;20115;-50
2021/09/22 06:53:05;;;;;;;45.83;22.73;;;;;;;16.26;62.20;99593.91;5054444;28;20024;-50
2021/09/22 06:55:31;;;;;;;25.45;20.15;;;;;;;16.50;61.62;99600.25;5053004;28;20029;-49
2021/09/22 06:57:57;;;;;;;37.90;22.30;;;;;;;16.49;61.22;99598.66;5054359;28;20025;-50
2021/09/22 07:00:23;;;;;;;45.67;22.50;;;;;;;16.28;62.23;99602.47;5052952;28;20411;-51
2021/09/22 07:02:48;;;;;;;27.27;21.45;;;;;;;16.63;61.76;99605.47;5052914;28;20025;-49
2021/09/22 07:05:15;;;;;;;32.20;26.23;;;;;;;16.77;61.22;99600.84;5052791;28;20040;-49
2021/09/22 07:07:46;;;;;;;40.08;22.35;;;;;;;17.00;61.13;99605.53;5054212;28;20017;-50
2021/09/22 07:10:14;;;;;;;47.55;26.00;;;;;;;17.23;61.02;99599.59;5054422;28;20048;-50
2021/09/22 07:12:39;;;;;;;27.27;21.98;;;;;;;17.32;60.78;99602.75;5054118;28;20029;-52
2021/09/22 07:15:06;;;;;;;45.45;25.17;;;;;;;17.25;62.54;99612.66;5052700;28;20037;-52
2021/09/22 07:17:31;;;;;;;59.35;32.50;;;;;;;17.12;63.22;99602.97;5053931;28;20020;-52
2021/09/22 07:19:59;;;;;;;29.13;21.00;;;;;;;17.05;62.33;99603.06;5053425;28;20025;-51
2021/09/22 07:22:25;;;;;;;29.20;20.92;;;;;;;16.94;61.73;99604.59;5052296;28;20037;-51
2021/09/22 07:24:51;;;;;;;47.80;34.22;;;;;;;16.91;62.15;99606.88;5053770;28;20025;-52
2021/09/22 07:27:17;;;;;;;546.05;419.95;;;;;;;17.05;61.70;99608.38;5053784;28;20376;-52
2021/09/22 07:29:43;;;;;;;363.48;235.77;;;;;;;17.12;61.58;99600.34;5053701;28;20021;-51
2021/09/22 07:32:09;;;;;;;1675.72;855.72;;;;;;;17.18;61.60;99594.13;5052320;28;20071;-51
2021/09/22 07:34:38;;;;;;;337.55;195.57;;;;;;;17.35;61.49;99592.53;5052321;28;20100;-51
2021/09/22 07:37:10;;;;;;;90.47;61.33;;;;;;;17.49;59.97;99595.84;5053609;28;20025;-50
2021/09/22 07:39:39;;;;;;;55.00;40.55;;;;;;;17.47;60.26;99600.56;5053571;28;20060;-50
2021/09/22 07:42:05;;;;;;;49.38;38.30;;;;;;;17.43;60.50;99595.94;5052156;28;20453;-50
2021/09/22 07:44:34;;;;;;;38.20;24.67;;;;;;;17.35;60.61;99607.66;5052058;28;20017;-50
2021/09/22 07:47:02;;;;;;;40.80;26.33;;;;;;;17.33;60.25;99604.41;5052056;28;20395;-49
2021/09/22 07:49:28;;;;;;;34.97;21.08;;;;;;;17.26;60.65;99611.59;5052067;28;20111;-49
2021/09/22 07:51:53;;;;;;;29.55;20.42;;;;;;;17.17;60.83;99609.25;5051967;28;20116;-51
2021/09/22 07:54:19;;;;;;;25.77;18.35;;;;;;;17.07;60.88;99610.81;5053284;28;20028;-51
2021/09/22 07:56:45;;;;;;;26.15;19.17;;;;;;;16.95;61.20;99614.16;5051926;28;20025;-51
2021/09/22 07:59:10;;;;;;;30.10;19.65;;;;;;;17.16;61.30;99614.78;5053190;28;20023;-50
2021/09/22 08:01:39;;;;;;;29.27;19.27;;;;;;;17.35;61.41;99610.28;5053143;28;20059;-50
2021/09/22 08:04:08;;;;;;;36.95;28.58;;;;;;;17.50;60.48;99616.03;5053113;28;20395;-50
2021/09/22 08:06:33;;;;;;;45.15;30.75;;;;;;;17.53;60.96;99617.44;5053183;28;20471;-50
2021/09/22 08:08:59;;;;;;;63.30;48.00;;;;;;;17.78;60.53;99619.97;5051661;28;20116;-49
2021/09/22 08:11:25;;;;;;;251.20;190.80;;;;;;;17.82;59.70;99615.81;5052917;28;20032;-50
2021/09/22 08:13:50;;;;;;;71.63;47.65;;;;;;;17.65;59.81;99617.50;5052885;28;20040;-49
2021/09/22 08:16:16;;;;;;;38.47;29.05;;;;;;;17.74;59.84;99622.25;5052826;28;20108;-50
2021/09/22 08:18:45;;;;;;;30.83;22.83;;;;;;;17.89;59.09;99623.75;5052990;28;20036;-50
2021/09/22 08:21:13;;;;;;;34.92;28.27;;;;;;;17.96;59.06;99619.94;5052461;28;20495;-50
2021/09/22 08:23:40;;;;;;;32.42;20.33;;;;;;;18.10;58.38;99612.59;5052799;28;20033;-50
2021/09/22 08:26:06;;;;;;;29.50;19.48;;;;;;;18.12;58.67;99612.38;5052579;28;20021;-51
2021/09/22 08:28:33;;;;;;;40.90;29.02;;;;;;;18.25;58.13;99617.53;5052492;28;20519;-52
2021/09/22 08:30:59;;;;;;;30.80;17.75;;;;;;;18.52;57.78;99617.91;5052211;28;20035;-50
2021/09/22 08:33:25;;;;;;;22.90;18.23;;;;;;;18.70;56.78;99619.66;5050709;28;20136;-51
2021/09/22 08:35:50;;;;;;;23.70;15.75;;;;;;;18.68;56.71;99623.59;5051133;28;20095;-51
2021/09/22 08:38:16;;;;;;;29.63;20.80;;;;;;;18.91;56.33;99620.16;5052441;28;20016;-51
2021/09/22 08:40:42;;;;;;;18.00;15.98;;;;;;;19.12;55.26;99624.88;5052374;28;20515;-51
2021/09/22 08:43:07;;;;;;;25.15;19.08;;;;;;;19.06;55.47;99625.00;5052336;28;20446;-51
2021/09/22 08:45:37;;;;;;;24.20;21.60;;;;;;;19.01;55.58;99622.22;5052168;28;20453;-49
2021/09/22 08:48:03;;;;;;;42.95;30.75;;;;;;;18.94;55.96;99620.50;5052254;28;20572;-49
2021/09/22 08:50:30;;;;;;;20.65;16.58;;;;;;;19.03;55.58;99622.81;5034292;28;20029;-50
2021/09/22 08:52:55;;;;;;;30.90;27.58;;;;;;;18.93;55.02;99632.19;5050890;28;20112;-49
2021/09/22 08:55:21;;;;;;;25.33;18.55;;;;;;;18.84;55.71;99630.91;5052087;28;20035;-50
2021/09/22 08:57:47;;;;;;;23.67;18.05;;;;;;;18.81;55.89;99626.03;5052181;28;20032;-50
2021/09/22 09:00:15;;;;;;;30.73;27.13;;;;;;;19.18;55.64;99627.66;5052048;28;20028;-50
2021/09/22 09:02:44;;;;;;;22.60;17.58;;;;;;;19.39;54.26;99629.69;5052050;28;20025;-49
2021/09/22 09:05:13;;;;;;;20.95;17.92;;;;;;;19.13;54.85;99628.34;5051879;28;20021;-49
2021/09/22 09:07:57;;;;;;;22.40;19.92;;;;;;;19.16;54.74;99627.91;5050620;28;20075;-50
2021/09/22 09:10:31;;;;;;;25.65;18.02;;;;;;;19.07;54.76;99629.28;5050565;28;20469;-49
2021/09/22 09:13:09;;;;;;;29.63;20.73;;;;;;;19.04;55.09;99627.09;5050641;28;20094;-49
2021/09/22 09:15:41;;;;;;;20.58;17.10;;;;;;;19.08;55.07;99630.91;5051803;28;20025;-50
2021/09/22 09:18:18;;;;;;;28.38;16.65;;;;;;;19.03;55.41;99636.91;5050490;28;20103;-49
2021/09/22 09:20:49;;;;;;;18.90;16.90;;;;;;;19.33;54.95;99639.41;5050514;28;20484;-50
2021/09/22 09:23:18;;;;;;;19.85;14.82;;;;;;;19.64;54.19;99632.06;5051571;28;20125;-50
2021/09/22 09:26:05;;;;;;;37.00;17.50;;;;;;;19.89;54.34;99625.63;5051575;28;20116;-50
2021/09/22 09:28:34;;;;;;;24.58;17.08;;;;;;;20.16;52.51;99620.50;5051778;28;20025;-50
2021/09/22 09:31:00;;;;;;;17.15;14.63;;;;;;;20.37;51.73;99618.22;5051652;28;20021;-51
2021/09/22 09:33:47;;;;;;;23.73;16.67;;;;;;;20.41;51.74;99612.16;5051684;28;20031;-52
2021/09/22 09:36:25;;;;;;;17.33;13.82;;;;;;;20.54;51.47;99619.84;5050335;28;20040;-51
2021/09/22 09:38:59;;;;;;;17.27;14.73;;;;;;;20.76;51.10;99613.78;5051663;28;20033;-51
2021/09/22 09:41:37;;;;;;;24.40;19.63;;;;;;;21.26;49.66;99610.19;5051624;28;20036;-52
2021/09/22 09:44:06;;;;;;;240.88;187.80;;;;;;;21.61;48.84;99613.56;5054280;28;20107;-52
2021/09/22 09:46:33;;;;;;;403.58;288.92;;;;;;;22.03;48.25;99611.06;5054228;28;20021;-51
2021/09/22 09:49:07;;;;;;;33.53;28.10;;;;;;;22.48;47.41;99595.72;5054327;28;20029;-50
2021/09/22 09:51:47;;;;;;;41.00;28.42;;;;;;;22.80;46.30;99592.16;5055644;28;20509;-50
2021/09/22 09:54:17;;;;;;;41.35;29.88;;;;;;;23.47;44.82;99596.00;5055637;28;20452;-50
2021/09/22 09:56:43;;;;;;;23.60;20.40;;;;;;;23.82;43.98;99589.94;5055475;28;20029;-52
2021/09/22 09:59:10;;;;;;;25.65;22.27;;;;;;;24.11;43.21;99592.94;5055500;28;20017;-51
2021/09/22 10:01:44;;;;;;;23.13;20.63;;;;;;;24.60;42.53;99586.22;5055483;28;20099;-52
2021/09/22 10:04:15;;;;;;;17.60;15.73;;;;;;;24.61;42.13;99587.84;5055487;28;20025;-52
2021/09/22 10:06:45;;;;;;;16.75;14.68;;;;;;;24.70;41.66;99586.22;5055262;28;20115;-52
2021/09/22 10:09:12;;;;;;;16.00;14.30;;;;;;;24.64;41.87;99583.81;5054036;28;20406;-50
2021/09/22 10:11:40;;;;;;;16.10;14.43;;;;;;;24.66;41.34;99590.53;5053952;28;20021;-51
2021/09/22 10:14:08;;;;;;;18.92;16.05;;;;;;;24.86;41.10;99578.94;5055228;28;20032;-50
2021/09/22 10:16:36;;;;;;;19.05;14.50;;;;;;;25.23;40.45;99579.63;5055159;28;20021;-50
2021/09/22 10:19:03;;;;;;;16.00;12.98;;;;;;;27.02;38.12;99562.13;5055175;28;20036;-50
2021/09/22 10:21:34;;;;;;;15.10;13.43;;;;;;;28.61;35.44;99561.69;5053416;28;20418;-50
2021/09/22 10:24:02;;;;;;;14.13;12.27;;;;;;;29.79;33.40;99554.66;5055092;28;20028;-50
2021/09/22 10:26:31;;;;;;;14.30;13.02;;;;;;;31.14;30.99;99553.59;5054824;28;20514;-51
2021/09/22 10:29:01;;;;;;;13.05;11.48;;;;;;;31.52;30.26;99547.63;5055147;28;20025;-50
2021/09/22 10:31:29;;;;;;;16.50;13.93;;;;;;;31.80;30.85;99541.88;5054815;28;20033;-50
2021/09/22 10:33:57;;;;;;;14.30;12.90;;;;;;;31.66;29.19;99544.75;5054812;28;20021;-48
2021/09/22 10:36:33;;;;;;;14.00;11.77;;;;;;;31.86;29.19;99540.56;5054743;28;20033;-49
2021/09/22 10:39:06;;;;;;;14.60;12.88;;;;;;;31.92;28.71;99549.34;5054735;28;20028;-48
2021/09/22 10:41:39;;;;;;;34.97;31.55;;;;;;;31.85;29.04;99538.97;5053547;28;20044;-48
2021/09/22 10:44:05;;;;;;;32.25;28.90;;;;;;;31.99;28.15;99531.44;5053361;28;20115;-48
2021/09/22 10:46:31;;;;;;;69.47;62.72;;;;;;;32.37;28.10;99522.56;5054442;28;20112;-49
2021/09/22 10:49:03;;;;;;;83.38;74.82;;;;;;;32.77;27.51;99521.47;5053212;28;20028;-48
2021/09/22 10:51:33;;;;;;;39.95;32.05;;;;;;;32.35;27.70;99513.94;5053196;28;20406;-48
2021/09/22 10:54:07;;;;;;;13.65;12.40;;;;;;;32.40;27.59;99518.44;5054317;28;20517;-48
2021/09/22 10:56:35;;;;;;;13.32;12.02;;;;;;;32.31;27.81;99517.66;5053801;28;20439;-48
2021/09/22 10:59:03;;;;;;;21.92;12.55;;;;;;;32.18;27.82;99508.59;5054413;28;20047;-48
2021/09/22 11:01:31;;;;;;;11.82;10.77;;;;;;;31.79;27.76;99504.97;5054325;28;20545;-49
2021/09/22 11:04:01;;;;;;;11.63;10.60;;;;;;;31.35;28.43;99504.97;5054512;28;20498;-49
2021/09/22 11:06:42;;;;;;;14.55;11.88;;;;;;;31.34;29.08;99513.44;5054081;28;20064;-49
2021/09/22 11:09:13;;;;;;;15.23;12.05;;;;;;;30.83;29.72;99500.25;5054202;28;20075;-49
2021/09/22 11:12:00;;;;;;;19.58;12.40;;;;;;;30.66;30.08;99500.19;5054124;28;20029;-49
2021/09/22 11:14:40;;;;;;;11.68;10.70;;;;;;;30.86;29.28;99496.09;5054153;28;20063;-52
2021/09/22 11:17:17;;;;;;;12.10;10.77;;;;;;;30.98;29.62;99499.03;5054045;28;20025;-52
2021/09/22 11:19:50;;;;;;;11.70;10.50;;;;;;;30.75;29.45;99506.47;5052658;28;20025;-51